METAR Data
IDs: Format: Raw Decoded Include TAF

Data at: 1559 UTC 18 Feb 2019

METAR for:KLWD (Lamoni Muni, IA, US)
Text:KLWD 181553Z AUTO 32007KT 10SM SCT013 OVC020 M07/M10 A3039 RMK AO2 SLP312 T10721100
Temperature: -7.2°C ( 19°F)
Dewpoint:-10.0°C ( 14°F) [RH = 80%]
Pressure (altimeter):30.39 inches Hg (1029.2 mb) [Sea level pressure: 1031.2 mb]
Winds:from the NW (320 degrees) at 8 MPH (7 knots; 3.6 m/s)
Visibility:10 or more sm (16+ km)
Ceiling:2000 feet AGL
Clouds: scattered clouds at 1300 feet AGL, overcast cloud deck at 2000 feet AGL
QC Flag:automated observation with no human augmentation